sensor_id;sensor_type;location;lat;lon;timestamp;P1;durP1;ratioP1;P2;durP2;ratioP2
47589;SDS011;33316;52.298;9.056;2022-08-11T00:01:43;2.17;;;0.65;;
47589;SDS011;33316;52.298;9.056;2022-08-11T00:04:15;1.10;;;0.85;;
47589;SDS011;33316;52.298;9.056;2022-08-11T00:06:42;1.45;;;1.00;;
47589;SDS011;33316;52.298;9.056;2022-08-11T00:09:11;2.42;;;0.70;;
47589;SDS011;33316;52.298;9.056;2022-08-11T00:11:51;0.75;;;0.68;;
47589;SDS011;33316;52.298;9.056;2022-08-11T00:14:19;1.58;;;0.77;;
47589;SDS011;33316;52.298;9.056;2022-08-11T00:19:30;1.40;;;0.75;;
47589;SDS011;33316;52.298;9.056;2022-08-11T00:21:58;1.58;;;0.85;;
47589;SDS011;33316;52.298;9.056;2022-08-11T00:24:24;1.40;;;0.63;;
47589;SDS011;33316;52.298;9.056;2022-08-11T00:27:01;1.02;;;0.77;;
47589;SDS011;33316;52.298;9.056;2022-08-11T00:29:27;1.70;;;0.70;;
47589;SDS011;33316;52.298;9.056;2022-08-11T00:31:55;1.38;;;0.77;;
47589;SDS011;33316;52.298;9.056;2022-08-11T00:34:23;1.10;;;0.80;;
47589;SDS011;33316;52.298;9.056;2022-08-11T00:36:56;1.40;;;0.88;;
47589;SDS011;33316;52.298;9.056;2022-08-11T00:39:25;1.75;;;0.80;;
47589;SDS011;33316;52.298;9.056;2022-08-11T00:44:41;1.23;;;0.70;;
47589;SDS011;33316;52.298;9.056;2022-08-11T00:47:33;0.85;;;0.65;;
47589;SDS011;33316;52.298;9.056;2022-08-11T01:23:06;1.10;;;0.65;;
47589;SDS011;33316;52.298;9.056;2022-08-11T01:25:53;1.02;;;0.70;;
47589;SDS011;33316;52.298;9.056;2022-08-11T01:52:47;1.35;;;0.80;;
47589;SDS011;33316;52.298;9.056;2022-08-11T01:55:41;0.90;;;0.80;;
47589;SDS011;33316;52.298;9.056;2022-08-11T02:00:52;2.10;;;1.10;;
47589;SDS011;33316;52.298;9.056;2022-08-11T02:03:28;1.67;;;0.90;;
47589;SDS011;33316;52.298;9.056;2022-08-11T02:12:19;2.80;;;0.82;;
47589;SDS011;33316;52.298;9.056;2022-08-11T02:20:22;3.10;;;1.10;;
47589;SDS011;33316;52.298;9.056;2022-08-11T02:37:28;2.63;;;0.88;;
47589;SDS011;33316;52.298;9.056;2022-08-11T02:40:20;0.85;;;0.82;;
47589;SDS011;33316;52.298;9.056;2022-08-11T02:43:00;1.58;;;0.80;;
47589;SDS011;33316;52.298;9.056;2022-08-11T02:45:54;1.50;;;0.90;;
47589;SDS011;33316;52.298;9.056;2022-08-11T02:54:16;1.15;;;0.80;;
47589;SDS011;33316;52.298;9.056;2022-08-11T02:56:56;2.38;;;0.95;;
47589;SDS011;33316;52.298;9.056;2022-08-11T03:10:22;1.52;;;1.08;;
47589;SDS011;33316;52.298;9.056;2022-08-11T03:13:00;1.30;;;1.10;;
47589;SDS011;33316;52.298;9.056;2022-08-11T03:19:20;1.70;;;1.23;;
47589;SDS011;33316;52.298;9.056;2022-08-11T03:27:38;1.75;;;1.10;;
47589;SDS011;33316;52.298;9.056;2022-08-11T03:30:15;1.52;;;0.98;;
47589;SDS011;33316;52.298;9.056;2022-08-11T03:39:06;1.88;;;0.80;;
47589;SDS011;33316;52.298;9.056;2022-08-11T03:42:00;2.58;;;1.00;;
47589;SDS011;33316;52.298;9.056;2022-08-11T03:53:18;1.10;;;0.90;;
47589;SDS011;33316;52.298;9.056;2022-08-11T03:58:48;1.42;;;1.00;;
47589;SDS011;33316;52.298;9.056;2022-08-11T04:13:30;2.03;;;0.93;;
47589;SDS011;33316;52.298;9.056;2022-08-11T04:16:23;1.52;;;1.00;;
47589;SDS011;33316;52.298;9.056;2022-08-11T04:30:13;2.67;;;1.10;;
47589;SDS011;33316;52.298;9.056;2022-08-11T04:50:43;1.40;;;1.00;;
47589;SDS011;33316;52.298;9.056;2022-08-11T04:56:17;1.75;;;0.93;;
47589;SDS011;33316;52.298;9.056;2022-08-11T05:09:09;2.65;;;1.27;;
47589;SDS011;33316;52.298;9.056;2022-08-11T05:14:36;2.45;;;1.52;;
47589;SDS011;33316;52.298;9.056;2022-08-11T05:17:39;2.40;;;1.40;;
47589;SDS011;33316;52.298;9.056;2022-08-11T05:20:24;1.90;;;1.30;;
47589;SDS011;33316;52.298;9.056;2022-08-11T05:23:10;1.50;;;1.17;;
47589;SDS011;33316;52.298;9.056;2022-08-11T05:25:55;3.33;;;1.98;;
47589;SDS011;33316;52.298;9.056;2022-08-11T05:28:55;2.90;;;1.70;;
47589;SDS011;33316;52.298;9.056;2022-08-11T05:31:45;2.35;;;1.40;;
47589;SDS011;33316;52.298;9.056;2022-08-11T05:34:45;2.75;;;1.45;;
47589;SDS011;33316;52.298;9.056;2022-08-11T05:37:30;2.40;;;1.58;;
47589;SDS011;33316;52.298;9.056;2022-08-11T05:42:59;2.55;;;1.40;;
47589;SDS011;33316;52.298;9.056;2022-08-11T05:46:04;3.05;;;1.65;;
47589;SDS011;33316;52.298;9.056;2022-08-11T05:48:50;3.03;;;1.67;;
47589;SDS011;33316;52.298;9.056;2022-08-11T05:51:35;1.77;;;1.55;;
47589;SDS011;33316;52.298;9.056;2022-08-11T05:54:25;2.55;;;1.65;;
47589;SDS011;33316;52.298;9.056;2022-08-11T05:57:17;3.33;;;1.63;;
47589;SDS011;33316;52.298;9.056;2022-08-11T05:59:50;3.60;;;1.77;;
47589;SDS011;33316;52.298;9.056;2022-08-11T06:02:23;3.63;;;1.98;;
47589;SDS011;33316;52.298;9.056;2022-08-11T06:04:57;4.68;;;2.10;;
47589;SDS011;33316;52.298;9.056;2022-08-11T06:07:28;3.50;;;1.70;;
47589;SDS011;33316;52.298;9.056;2022-08-11T06:12:23;6.35;;;2.03;;
47589;SDS011;33316;52.298;9.056;2022-08-11T06:14:56;3.03;;;1.80;;
47589;SDS011;33316;52.298;9.056;2022-08-11T06:17:31;5.50;;;2.00;;
47589;SDS011;33316;52.298;9.056;2022-08-11T06:20:01;3.60;;;1.83;;
47589;SDS011;33316;52.298;9.056;2022-08-11T06:22:29;4.45;;;2.20;;
47589;SDS011;33316;52.298;9.056;2022-08-11T06:24:56;2.95;;;2.15;;
47589;SDS011;33316;52.298;9.056;2022-08-11T06:27:25;3.03;;;1.80;;
47589;SDS011;33316;52.298;9.056;2022-08-11T06:29:54;5.80;;;1.95;;
47589;SDS011;33316;52.298;9.056;2022-08-11T06:32:25;4.10;;;2.40;;
47589;SDS011;33316;52.298;9.056;2022-08-11T06:43:17;2.53;;;1.60;;
47589;SDS011;33316;52.298;9.056;2022-08-11T06:48:15;4.13;;;1.60;;
47589;SDS011;33316;52.298;9.056;2022-08-11T06:50:48;3.80;;;1.67;;
47589;SDS011;33316;52.298;9.056;2022-08-11T06:53:45;2.58;;;1.50;;
47589;SDS011;33316;52.298;9.056;2022-08-11T06:56:13;2.10;;;1.55;;
47589;SDS011;33316;52.298;9.056;2022-08-11T06:59:04;2.20;;;1.40;;
47589;SDS011;33316;52.298;9.056;2022-08-11T07:01:56;2.55;;;1.20;;
47589;SDS011;33316;52.298;9.056;2022-08-11T07:04:29;5.45;;;1.48;;
47589;SDS011;33316;52.298;9.056;2022-08-11T07:13:43;3.17;;;1.20;;
47589;SDS011;33316;52.298;9.056;2022-08-11T07:16:29;2.10;;;0.80;;
47589;SDS011;33316;52.298;9.056;2022-08-11T07:19:02;1.67;;;1.00;;
47589;SDS011;33316;52.298;9.056;2022-08-11T07:21:49;2.95;;;1.17;;
47589;SDS011;33316;52.298;9.056;2022-08-11T07:24:35;1.48;;;0.93;;
47589;SDS011;33316;52.298;9.056;2022-08-11T07:27:22;1.98;;;0.95;;
47589;SDS011;33316;52.298;9.056;2022-08-11T07:30:11;1.67;;;1.17;;
47589;SDS011;33316;52.298;9.056;2022-08-11T07:32:43;4.50;;;1.20;;
47589;SDS011;33316;52.298;9.056;2022-08-11T07:35:17;1.27;;;0.77;;
47589;SDS011;33316;52.298;9.056;2022-08-11T07:37:52;2.33;;;1.23;;
47589;SDS011;33316;52.298;9.056;2022-08-11T07:40:22;3.00;;;1.50;;
47589;SDS011;33316;52.298;9.056;2022-08-11T07:42:49;3.05;;;1.60;;
47589;SDS011;33316;52.298;9.056;2022-08-11T07:45:16;1.77;;;1.08;;
47589;SDS011;33316;52.298;9.056;2022-08-11T07:48:01;2.35;;;1.15;;
47589;SDS011;33316;52.298;9.056;2022-08-11T07:50:46;3.80;;;1.30;;
47589;SDS011;33316;52.298;9.056;2022-08-11T07:53:32;2.50;;;1.17;;
47589;SDS011;33316;52.298;9.056;2022-08-11T07:56:02;1.70;;;1.00;;
47589;SDS011;33316;52.298;9.056;2022-08-11T07:58:30;1.60;;;0.95;;
47589;SDS011;33316;52.298;9.056;2022-08-11T08:01:18;4.05;;;1.40;;
47589;SDS011;33316;52.298;9.056;2022-08-11T08:04:04;2.88;;;1.30;;
47589;SDS011;33316;52.298;9.056;2022-08-11T08:06:51;4.90;;;1.23;;
47589;SDS011;33316;52.298;9.056;2022-08-11T08:09:35;3.60;;;0.88;;
47589;SDS011;33316;52.298;9.056;2022-08-11T08:12:21;1.98;;;0.82;;
47589;SDS011;33316;52.298;9.056;2022-08-11T08:15:07;2.53;;;1.00;;
47589;SDS011;33316;52.298;9.056;2022-08-11T08:17:57;1.67;;;0.80;;
47589;SDS011;33316;52.298;9.056;2022-08-11T08:20:28;1.15;;;0.65;;
47589;SDS011;33316;52.298;9.056;2022-08-11T08:22:57;0.90;;;0.70;;
47589;SDS011;33316;52.298;9.056;2022-08-11T08:25:25;1.75;;;0.68;;
47589;SDS011;33316;52.298;9.056;2022-08-11T08:30:23;1.20;;;0.60;;
47589;SDS011;33316;52.298;9.056;2022-08-11T08:33:12;1.42;;;0.75;;
47589;SDS011;33316;52.298;9.056;2022-08-11T08:35:41;2.20;;;0.73;;
47589;SDS011;33316;52.298;9.056;2022-08-11T08:38:08;2.42;;;0.70;;
47589;SDS011;33316;52.298;9.056;2022-08-11T08:40:34;2.22;;;0.80;;
47589;SDS011;33316;52.298;9.056;2022-08-11T08:43:02;2.03;;;0.88;;
47589;SDS011;33316;52.298;9.056;2022-08-11T08:45:33;1.55;;;0.68;;
47589;SDS011;33316;52.298;9.056;2022-08-11T08:48:03;2.08;;;0.90;;
47589;SDS011;33316;52.298;9.056;2022-08-11T08:53:20;2.72;;;0.77;;
47589;SDS011;33316;52.298;9.056;2022-08-11T08:55:48;2.07;;;0.70;;
47589;SDS011;33316;52.298;9.056;2022-08-11T08:58:15;2.17;;;0.90;;
47589;SDS011;33316;52.298;9.056;2022-08-11T09:00:44;4.60;;;0.80;;
47589;SDS011;33316;52.298;9.056;2022-08-11T09:03:11;2.58;;;0.73;;
47589;SDS011;33316;52.298;9.056;2022-08-11T09:05:38;2.35;;;1.08;;
47589;SDS011;33316;52.298;9.056;2022-08-11T09:08:05;1.83;;;0.82;;
47589;SDS011;33316;52.298;9.056;2022-08-11T09:10:31;0.82;;;0.80;;
47589;SDS011;33316;52.298;9.056;2022-08-11T09:12:58;0.70;;;0.60;;
47589;SDS011;33316;52.298;9.056;2022-08-11T09:15:24;0.70;;;0.50;;
47589;SDS011;33316;52.298;9.056;2022-08-11T09:17:52;1.05;;;0.60;;
47589;SDS011;33316;52.298;9.056;2022-08-11T09:20:30;1.05;;;0.68;;
47589;SDS011;33316;52.298;9.056;2022-08-11T09:22:58;3.75;;;0.73;;
47589;SDS011;33316;52.298;9.056;2022-08-11T09:25:49;3.00;;;0.80;;
47589;SDS011;33316;52.298;9.056;2022-08-11T09:28:37;2.45;;;0.70;;
47589;SDS011;33316;52.298;9.056;2022-08-11T09:31:05;1.35;;;0.73;;
47589;SDS011;33316;52.298;9.056;2022-08-11T09:33:31;1.67;;;0.80;;
47589;SDS011;33316;52.298;9.056;2022-08-11T09:35:58;1.73;;;0.73;;
47589;SDS011;33316;52.298;9.056;2022-08-11T09:38:44;1.40;;;0.52;;
47589;SDS011;33316;52.298;9.056;2022-08-11T09:41:29;1.23;;;0.70;;
47589;SDS011;33316;52.298;9.056;2022-08-11T09:43:56;1.33;;;0.73;;
47589;SDS011;33316;52.298;9.056;2022-08-11T09:46:42;1.45;;;0.80;;
47589;SDS011;33316;52.298;9.056;2022-08-11T09:49:08;0.70;;;0.60;;
47589;SDS011;33316;52.298;9.056;2022-08-11T09:51:33;2.78;;;0.90;;
47589;SDS011;33316;52.298;9.056;2022-08-11T09:53:59;1.20;;;0.65;;
47589;SDS011;33316;52.298;9.056;2022-08-11T09:56:30;2.25;;;0.70;;
47589;SDS011;33316;52.298;9.056;2022-08-11T09:59:19;3.03;;;0.68;;
47589;SDS011;33316;52.298;9.056;2022-08-11T10:01:46;2.15;;;0.90;;
47589;SDS011;33316;52.298;9.056;2022-08-11T10:04:17;1.40;;;0.65;;
47589;SDS011;33316;52.298;9.056;2022-08-11T10:06:48;2.53;;;0.90;;
47589;SDS011;33316;52.298;9.056;2022-08-11T10:09:26;2.92;;;0.73;;
47589;SDS011;33316;52.298;9.056;2022-08-11T10:11:58;0.75;;;0.63;;
47589;SDS011;33316;52.298;9.056;2022-08-11T10:14:26;1.95;;;0.77;;
47589;SDS011;33316;52.298;9.056;2022-08-11T10:17:13;1.17;;;0.63;;
47589;SDS011;33316;52.298;9.056;2022-08-11T10:19:42;2.75;;;0.68;;
47589;SDS011;33316;52.298;9.056;2022-08-11T10:22:11;2.22;;;0.90;;
47589;SDS011;33316;52.298;9.056;2022-08-11T10:24:58;3.17;;;1.10;;
47589;SDS011;33316;52.298;9.056;2022-08-11T10:27:43;1.88;;;0.70;;
47589;SDS011;33316;52.298;9.056;2022-08-11T10:30:09;1.27;;;0.73;;
47589;SDS011;33316;52.298;9.056;2022-08-11T10:32:55;2.60;;;1.00;;
47589;SDS011;33316;52.298;9.056;2022-08-11T10:35:41;1.65;;;0.80;;
47589;SDS011;33316;52.298;9.056;2022-08-11T10:38:09;2.42;;;0.88;;
47589;SDS011;33316;52.298;9.056;2022-08-11T10:40:38;1.45;;;0.80;;
47589;SDS011;33316;52.298;9.056;2022-08-11T10:43:05;1.38;;;0.80;;
47589;SDS011;33316;52.298;9.056;2022-08-11T10:45:38;1.33;;;0.75;;
47589;SDS011;33316;52.298;9.056;2022-08-11T10:48:25;1.65;;;0.70;;
47589;SDS011;33316;52.298;9.056;2022-08-11T10:50:52;1.65;;;0.80;;
47589;SDS011;33316;52.298;9.056;2022-08-11T10:53:41;5.40;;;1.10;;
47589;SDS011;33316;52.298;9.056;2022-08-11T10:56:36;1.00;;;0.70;;
47589;SDS011;33316;52.298;9.056;2022-08-11T10:59:22;1.17;;;0.57;;
47589;SDS011;33316;52.298;9.056;2022-08-11T11:01:50;2.17;;;0.75;;
47589;SDS011;33316;52.298;9.056;2022-08-11T11:04:20;2.60;;;0.90;;
47589;SDS011;33316;52.298;9.056;2022-08-11T11:07:03;2.85;;;1.00;;
47589;SDS011;33316;52.298;9.056;2022-08-11T11:09:41;2.05;;;0.90;;
47589;SDS011;33316;52.298;9.056;2022-08-11T11:12:15;2.25;;;0.75;;
47589;SDS011;33316;52.298;9.056;2022-08-11T11:15:03;0.90;;;0.60;;
47589;SDS011;33316;52.298;9.056;2022-08-11T11:17:54;1.00;;;0.50;;
47589;SDS011;33316;52.298;9.056;2022-08-11T11:25:49;2.83;;;0.90;;
47589;SDS011;33316;52.298;9.056;2022-08-11T11:31:13;1.13;;;0.60;;
47589;SDS011;33316;52.298;9.056;2022-08-11T11:34:04;1.50;;;1.02;;
47589;SDS011;33316;52.298;9.056;2022-08-11T11:39:05;2.72;;;1.00;;
47589;SDS011;33316;52.298;9.056;2022-08-11T11:41:32;1.00;;;0.70;;
47589;SDS011;33316;52.298;9.056;2022-08-11T11:43:59;2.25;;;0.85;;
47589;SDS011;33316;52.298;9.056;2022-08-11T11:46:26;2.75;;;0.80;;
47589;SDS011;33316;52.298;9.056;2022-08-11T11:48:54;1.65;;;0.68;;
47589;SDS011;33316;52.298;9.056;2022-08-11T11:51:23;2.50;;;0.75;;
47589;SDS011;33316;52.298;9.056;2022-08-11T11:53:50;1.10;;;0.73;;
47589;SDS011;33316;52.298;9.056;2022-08-11T11:56:17;1.02;;;0.57;;
47589;SDS011;33316;52.298;9.056;2022-08-11T11:58:43;1.80;;;0.60;;
47589;SDS011;33316;52.298;9.056;2022-08-11T12:01:29;1.33;;;0.70;;
47589;SDS011;33316;52.298;9.056;2022-08-11T12:03:56;1.63;;;0.70;;
47589;SDS011;33316;52.298;9.056;2022-08-11T12:06:23;1.10;;;0.65;;
47589;SDS011;33316;52.298;9.056;2022-08-11T12:08:51;1.50;;;0.80;;
47589;SDS011;33316;52.298;9.056;2022-08-11T12:11:19;1.38;;;0.70;;
47589;SDS011;33316;52.298;9.056;2022-08-11T12:14:06;0.93;;;0.60;;
47589;SDS011;33316;52.298;9.056;2022-08-11T12:16:33;1.13;;;0.88;;
47589;SDS011;33316;52.298;9.056;2022-08-11T12:19:00;1.80;;;0.80;;
47589;SDS011;33316;52.298;9.056;2022-08-11T12:21:37;1.98;;;0.90;;
47589;SDS011;33316;52.298;9.056;2022-08-11T12:24:24;2.15;;;0.70;;
47589;SDS011;33316;52.298;9.056;2022-08-11T12:27:09;1.80;;;0.73;;
47589;SDS011;33316;52.298;9.056;2022-08-11T12:29:46;1.27;;;0.63;;
47589;SDS011;33316;52.298;9.056;2022-08-11T12:32:17;4.15;;;0.70;;
47589;SDS011;33316;52.298;9.056;2022-08-11T12:34:51;0.98;;;0.70;;
47589;SDS011;33316;52.298;9.056;2022-08-11T12:37:19;1.55;;;0.75;;
47589;SDS011;33316;52.298;9.056;2022-08-11T12:39:49;1.17;;;0.60;;
47589;SDS011;33316;52.298;9.056;2022-08-11T12:42:34;1.25;;;0.88;;
47589;SDS011;33316;52.298;9.056;2022-08-11T12:45:21;2.05;;;0.50;;
47589;SDS011;33316;52.298;9.056;2022-08-11T12:48:01;0.75;;;0.50;;
47589;SDS011;33316;52.298;9.056;2022-08-11T12:50:57;1.02;;;0.70;;
47589;SDS011;33316;52.298;9.056;2022-08-11T12:53:50;2.90;;;0.70;;
47589;SDS011;33316;52.298;9.056;2022-08-11T12:56:19;2.00;;;0.80;;
47589;SDS011;33316;52.298;9.056;2022-08-11T12:59:05;1.10;;;0.70;;
47589;SDS011;33316;52.298;9.056;2022-08-11T13:01:51;3.90;;;0.90;;
47589;SDS011;33316;52.298;9.056;2022-08-11T13:04:36;0.88;;;0.57;;
47589;SDS011;33316;52.298;9.056;2022-08-11T13:07:24;1.70;;;0.65;;
47589;SDS011;33316;52.298;9.056;2022-08-11T13:09:51;1.83;;;0.85;;
47589;SDS011;33316;52.298;9.056;2022-08-11T13:12:17;1.17;;;0.88;;
47589;SDS011;33316;52.298;9.056;2022-08-11T13:15:03;3.22;;;0.75;;
47589;SDS011;33316;52.298;9.056;2022-08-11T13:17:29;1.10;;;0.80;;
47589;SDS011;33316;52.298;9.056;2022-08-11T13:19:58;3.40;;;0.80;;
47589;SDS011;33316;52.298;9.056;2022-08-11T13:22:26;1.33;;;0.80;;
47589;SDS011;33316;52.298;9.056;2022-08-11T13:24:53;1.88;;;0.73;;
47589;SDS011;33316;52.298;9.056;2022-08-11T13:27:21;2.20;;;0.82;;
47589;SDS011;33316;52.298;9.056;2022-08-11T13:29:48;1.13;;;0.52;;
47589;SDS011;33316;52.298;9.056;2022-08-11T13:32:16;1.45;;;0.60;;
47589;SDS011;33316;52.298;9.056;2022-08-11T13:34:44;1.33;;;0.60;;
47589;SDS011;33316;52.298;9.056;2022-08-11T13:37:11;2.00;;;0.80;;
47589;SDS011;33316;52.298;9.056;2022-08-11T13:39:39;2.58;;;0.80;;
47589;SDS011;33316;52.298;9.056;2022-08-11T13:42:11;1.17;;;0.77;;
47589;SDS011;33316;52.298;9.056;2022-08-11T13:44:39;2.40;;;0.80;;
47589;SDS011;33316;52.298;9.056;2022-08-11T13:47:07;1.13;;;0.65;;
47589;SDS011;33316;52.298;9.056;2022-08-11T13:49:36;1.13;;;0.60;;
47589;SDS011;33316;52.298;9.056;2022-08-11T13:52:03;0.88;;;0.57;;
47589;SDS011;33316;52.298;9.056;2022-08-11T13:54:34;1.73;;;0.90;;
47589;SDS011;33316;52.298;9.056;2022-08-11T13:57:03;1.05;;;0.70;;
47589;SDS011;33316;52.298;9.056;2022-08-11T13:59:31;3.15;;;0.90;;
47589;SDS011;33316;52.298;9.056;2022-08-11T14:02:01;1.23;;;0.63;;
47589;SDS011;33316;52.298;9.056;2022-08-11T14:04:30;2.78;;;0.80;;
47589;SDS011;33316;52.298;9.056;2022-08-11T14:07:08;2.70;;;0.85;;
47589;SDS011;33316;52.298;9.056;2022-08-11T14:09:35;2.42;;;0.80;;
47589;SDS011;33316;52.298;9.056;2022-08-11T14:12:06;3.95;;;0.80;;
47589;SDS011;33316;52.298;9.056;2022-08-11T14:15:04;1.48;;;0.60;;
47589;SDS011;33316;52.298;9.056;2022-08-11T14:17:34;1.30;;;0.73;;
47589;SDS011;33316;52.298;9.056;2022-08-11T14:20:03;3.15;;;0.77;;
47589;SDS011;33316;52.298;9.056;2022-08-11T14:25:01;1.30;;;0.55;;
47589;SDS011;33316;52.298;9.056;2022-08-11T14:27:27;0.60;;;0.57;;
47589;SDS011;33316;52.298;9.056;2022-08-11T14:29:55;2.20;;;0.70;;
47589;SDS011;33316;52.298;9.056;2022-08-11T14:32:22;1.13;;;0.70;;
47589;SDS011;33316;52.298;9.056;2022-08-11T14:34:48;2.20;;;0.77;;
47589;SDS011;33316;52.298;9.056;2022-08-11T14:37:18;2.65;;;0.95;;
47589;SDS011;33316;52.298;9.056;2022-08-11T14:39:46;2.15;;;0.88;;
47589;SDS011;33316;52.298;9.056;2022-08-11T14:42:15;1.45;;;0.70;;
47589;SDS011;33316;52.298;9.056;2022-08-11T14:45:05;1.83;;;0.65;;
47589;SDS011;33316;52.298;9.056;2022-08-11T14:48:01;2.03;;;0.80;;
47589;SDS011;33316;52.298;9.056;2022-08-11T14:50:30;2.10;;;0.90;;
47589;SDS011;33316;52.298;9.056;2022-08-11T14:52:58;2.25;;;1.30;;
47589;SDS011;33316;52.298;9.056;2022-08-11T14:55:28;2.55;;;0.75;;
47589;SDS011;33316;52.298;9.056;2022-08-11T14:58:19;0.55;;;0.52;;
47589;SDS011;33316;52.298;9.056;2022-08-11T15:00:49;1.15;;;0.60;;
47589;SDS011;33316;52.298;9.056;2022-08-11T15:03:17;0.70;;;0.70;;
47589;SDS011;33316;52.298;9.056;2022-08-11T15:05:44;1.25;;;0.88;;
47589;SDS011;33316;52.298;9.056;2022-08-11T15:08:15;1.33;;;0.75;;
47589;SDS011;33316;52.298;9.056;2022-08-11T15:10:42;1.15;;;0.77;;
47589;SDS011;33316;52.298;9.056;2022-08-11T15:13:08;1.83;;;1.02;;
47589;SDS011;33316;52.298;9.056;2022-08-11T15:15:34;1.42;;;0.70;;
47589;SDS011;33316;52.298;9.056;2022-08-11T15:18:19;1.25;;;0.70;;
47589;SDS011;33316;52.298;9.056;2022-08-11T15:20:48;1.00;;;0.70;;
47589;SDS011;33316;52.298;9.056;2022-08-11T15:23:32;1.33;;;0.70;;
47589;SDS011;33316;52.298;9.056;2022-08-11T15:26:37;1.95;;;0.77;;
47589;SDS011;33316;52.298;9.056;2022-08-11T15:29:42;1.08;;;0.80;;
47589;SDS011;33316;52.298;9.056;2022-08-11T15:32:27;2.08;;;0.80;;
47589;SDS011;33316;52.298;9.056;2022-08-11T15:35:14;1.35;;;0.82;;
47589;SDS011;33316;52.298;9.056;2022-08-11T15:37:59;1.23;;;0.70;;
47589;SDS011;33316;52.298;9.056;2022-08-11T15:40:27;1.77;;;0.70;;
47589;SDS011;33316;52.298;9.056;2022-08-11T15:43:24;0.80;;;0.70;;
47589;SDS011;33316;52.298;9.056;2022-08-11T15:49:12;1.27;;;0.65;;
47589;SDS011;33316;52.298;9.056;2022-08-11T15:51:44;1.77;;;0.60;;
47589;SDS011;33316;52.298;9.056;2022-08-11T15:54:17;1.88;;;0.80;;
47589;SDS011;33316;52.298;9.056;2022-08-11T15:56:48;1.45;;;0.77;;
47589;SDS011;33316;52.298;9.056;2022-08-11T15:59:16;1.98;;;0.68;;
47589;SDS011;33316;52.298;9.056;2022-08-11T16:02:03;1.45;;;0.70;;
47589;SDS011;33316;52.298;9.056;2022-08-11T16:04:48;1.42;;;0.70;;
47589;SDS011;33316;52.298;9.056;2022-08-11T16:07:16;1.17;;;0.68;;
47589;SDS011;33316;52.298;9.056;2022-08-11T16:10:00;2.05;;;0.80;;
47589;SDS011;33316;52.298;9.056;2022-08-11T16:12:34;1.30;;;0.73;;
47589;SDS011;33316;52.298;9.056;2022-08-11T16:15:03;4.20;;;1.00;;
47589;SDS011;33316;52.298;9.056;2022-08-11T16:17:51;1.17;;;0.80;;
47589;SDS011;33316;52.298;9.056;2022-08-11T16:22:47;0.60;;;0.50;;
47589;SDS011;33316;52.298;9.056;2022-08-11T16:25:17;3.60;;;0.77;;
47589;SDS011;33316;52.298;9.056;2022-08-11T16:30:17;1.30;;;0.60;;
47589;SDS011;33316;52.298;9.056;2022-08-11T16:32:45;1.88;;;0.90;;
47589;SDS011;33316;52.298;9.056;2022-08-11T16:35:17;1.40;;;0.70;;
47589;SDS011;33316;52.298;9.056;2022-08-11T16:38:04;3.50;;;0.70;;
47589;SDS011;33316;52.298;9.056;2022-08-11T16:40:50;0.90;;;0.70;;
47589;SDS011;33316;52.298;9.056;2022-08-11T16:43:17;4.13;;;0.88;;
47589;SDS011;33316;52.298;9.056;2022-08-11T16:46:04;2.90;;;0.77;;
47589;SDS011;33316;52.298;9.056;2022-08-11T16:48:51;3.20;;;0.75;;
47589;SDS011;33316;52.298;9.056;2022-08-11T16:51:19;2.03;;;0.60;;
47589;SDS011;33316;52.298;9.056;2022-08-11T16:53:46;6.50;;;0.93;;
47589;SDS011;33316;52.298;9.056;2022-08-11T16:56:24;1.45;;;0.80;;
47589;SDS011;33316;52.298;9.056;2022-08-11T16:59:16;3.28;;;0.68;;
47589;SDS011;33316;52.298;9.056;2022-08-11T17:01:45;0.88;;;0.70;;
47589;SDS011;33316;52.298;9.056;2022-08-11T17:04:38;1.77;;;0.73;;
47589;SDS011;33316;52.298;9.056;2022-08-11T17:07:36;0.80;;;0.47;;
47589;SDS011;33316;52.298;9.056;2022-08-11T17:10:25;0.98;;;0.70;;
47589;SDS011;33316;52.298;9.056;2022-08-11T17:13:11;1.98;;;0.60;;
47589;SDS011;33316;52.298;9.056;2022-08-11T17:15:46;1.58;;;0.90;;
47589;SDS011;33316;52.298;9.056;2022-08-11T17:26:37;1.50;;;0.70;;
47589;SDS011;33316;52.298;9.056;2022-08-11T17:29:20;0.68;;;0.57;;
47589;SDS011;33316;52.298;9.056;2022-08-11T17:32:03;1.00;;;0.50;;
47589;SDS011;33316;52.298;9.056;2022-08-11T17:34:51;1.25;;;0.70;;
47589;SDS011;33316;52.298;9.056;2022-08-11T17:37:38;1.23;;;0.55;;
47589;SDS011;33316;52.298;9.056;2022-08-11T17:40:07;1.85;;;0.77;;
47589;SDS011;33316;52.298;9.056;2022-08-11T17:42:36;2.22;;;0.90;;
47589;SDS011;33316;52.298;9.056;2022-08-11T17:45:21;0.63;;;0.60;;
47589;SDS011;33316;52.298;9.056;2022-08-11T17:48:06;2.28;;;0.80;;
47589;SDS011;33316;52.298;9.056;2022-08-11T17:50:51;2.80;;;0.65;;
47589;SDS011;33316;52.298;9.056;2022-08-11T17:53:19;0.70;;;0.50;;
47589;SDS011;33316;52.298;9.056;2022-08-11T17:56:04;2.58;;;0.45;;
47589;SDS011;33316;52.298;9.056;2022-08-11T17:58:49;1.27;;;0.80;;
47589;SDS011;33316;52.298;9.056;2022-08-11T18:01:53;2.13;;;0.70;;
47589;SDS011;33316;52.298;9.056;2022-08-11T18:04:42;1.10;;;0.85;;
47589;SDS011;33316;52.298;9.056;2022-08-11T18:07:11;0.77;;;0.60;;
47589;SDS011;33316;52.298;9.056;2022-08-11T18:09:57;1.63;;;0.77;;
47589;SDS011;33316;52.298;9.056;2022-08-11T18:12:43;1.15;;;0.70;;
47589;SDS011;33316;52.298;9.056;2022-08-11T18:15:30;1.40;;;0.70;;
47589;SDS011;33316;52.298;9.056;2022-08-11T18:18:14;1.50;;;0.70;;
47589;SDS011;33316;52.298;9.056;2022-08-11T18:20:59;2.63;;;0.82;;
47589;SDS011;33316;52.298;9.056;2022-08-11T18:23:43;1.08;;;0.73;;
47589;SDS011;33316;52.298;9.056;2022-08-11T18:26:29;1.33;;;0.65;;
47589;SDS011;33316;52.298;9.056;2022-08-11T18:29:14;1.98;;;0.65;;
47589;SDS011;33316;52.298;9.056;2022-08-11T18:32:01;3.42;;;0.73;;
47589;SDS011;33316;52.298;9.056;2022-08-11T18:34:47;1.88;;;0.68;;
47589;SDS011;33316;52.298;9.056;2022-08-11T18:37:33;2.92;;;0.90;;
47589;SDS011;33316;52.298;9.056;2022-08-11T18:40:21;1.67;;;0.52;;
47589;SDS011;33316;52.298;9.056;2022-08-11T18:43:09;1.92;;;0.70;;
47589;SDS011;33316;52.298;9.056;2022-08-11T18:45:58;4.47;;;0.55;;
47589;SDS011;33316;52.298;9.056;2022-08-11T18:48:48;4.25;;;0.80;;
47589;SDS011;33316;52.298;9.056;2022-08-11T18:51:35;0.80;;;0.55;;
47589;SDS011;33316;52.298;9.056;2022-08-11T18:54:22;2.22;;;0.70;;
47589;SDS011;33316;52.298;9.056;2022-08-11T18:57:08;2.20;;;0.80;;
47589;SDS011;33316;52.298;9.056;2022-08-11T18:59:55;2.40;;;0.68;;
47589;SDS011;33316;52.298;9.056;2022-08-11T19:02:43;4.78;;;0.90;;
47589;SDS011;33316;52.298;9.056;2022-08-11T19:05:32;2.67;;;0.85;;
47589;SDS011;33316;52.298;9.056;2022-08-11T19:08:18;3.17;;;0.73;;
47589;SDS011;33316;52.298;9.056;2022-08-11T19:11:05;4.80;;;0.90;;
47589;SDS011;33316;52.298;9.056;2022-08-11T19:13:52;1.13;;;0.63;;
47589;SDS011;33316;52.298;9.056;2022-08-11T19:16:37;1.70;;;0.85;;
47589;SDS011;33316;52.298;9.056;2022-08-11T19:19:23;1.35;;;0.70;;
47589;SDS011;33316;52.298;9.056;2022-08-11T19:22:10;1.48;;;0.88;;
47589;SDS011;33316;52.298;9.056;2022-08-11T19:24:54;3.47;;;1.00;;
47589;SDS011;33316;52.298;9.056;2022-08-11T19:27:39;3.50;;;0.90;;
47589;SDS011;33316;52.298;9.056;2022-08-11T19:30:25;2.42;;;0.95;;
47589;SDS011;33316;52.298;9.056;2022-08-11T19:33:11;2.20;;;0.73;;
47589;SDS011;33316;52.298;9.056;2022-08-11T19:35:57;1.38;;;0.77;;
47589;SDS011;33316;52.298;9.056;2022-08-11T19:38:41;1.80;;;1.00;;
47589;SDS011;33316;52.298;9.056;2022-08-11T19:41:27;2.88;;;1.00;;
47589;SDS011;33316;52.298;9.056;2022-08-11T19:44:12;1.70;;;0.90;;
47589;SDS011;33316;52.298;9.056;2022-08-11T19:46:58;2.80;;;1.25;;
47589;SDS011;33316;52.298;9.056;2022-08-11T19:49:44;2.67;;;1.65;;
47589;SDS011;33316;52.298;9.056;2022-08-11T19:52:29;6.03;;;2.80;;
47589;SDS011;33316;52.298;9.056;2022-08-11T19:55:14;2.35;;;1.63;;
47589;SDS011;33316;52.298;9.056;2022-08-11T19:58:00;6.18;;;1.55;;
47589;SDS011;33316;52.298;9.056;2022-08-11T20:00:45;1.88;;;1.27;;